sensor_id;sensor_type;location;lat;lon;timestamp;P1;durP1;ratioP1;P2;durP2;ratioP2
16804;SDS011;8520;50.102;20.010;2023-12-20T00:01:19;14.23;;;12.73;;
16804;SDS011;8520;50.102;20.010;2023-12-20T00:03:47;13.37;;;12.03;;
16804;SDS011;8520;50.102;20.010;2023-12-20T00:06:15;15.30;;;12.93;;
16804;SDS011;8520;50.102;20.010;2023-12-20T00:08:43;14.77;;;12.60;;
16804;SDS011;8520;50.102;20.010;2023-12-20T00:11:11;14.90;;;12.33;;
16804;SDS011;8520;50.102;20.010;2023-12-20T00:13:39;13.77;;;12.23;;
16804;SDS011;8520;50.102;20.010;2023-12-20T00:16:07;13.17;;;11.77;;
16804;SDS011;8520;50.102;20.010;2023-12-20T00:18:37;14.27;;;11.77;;
16804;SDS011;8520;50.102;20.010;2023-12-20T00:21:05;14.27;;;12.77;;
16804;SDS011;8520;50.102;20.010;2023-12-20T00:23:33;13.33;;;11.97;;
16804;SDS011;8520;50.102;20.010;2023-12-20T00:26:00;13.30;;;11.97;;
16804;SDS011;8520;50.102;20.010;2023-12-20T00:28:28;12.87;;;11.10;;
16804;SDS011;8520;50.102;20.010;2023-12-20T00:30:56;12.93;;;11.57;;
16804;SDS011;8520;50.102;20.010;2023-12-20T00:33:24;12.70;;;10.93;;
16804;SDS011;8520;50.102;20.010;2023-12-20T00:35:54;11.37;;;10.10;;
16804;SDS011;8520;50.102;20.010;2023-12-20T00:38:21;11.87;;;10.70;;
16804;SDS011;8520;50.102;20.010;2023-12-20T00:40:49;11.30;;;10.23;;
16804;SDS011;8520;50.102;20.010;2023-12-20T00:43:17;12.03;;;10.83;;
16804;SDS011;8520;50.102;20.010;2023-12-20T00:45:45;12.03;;;10.83;;
16804;SDS011;8520;50.102;20.010;2023-12-20T00:48:13;10.80;;;9.70;;
16804;SDS011;8520;50.102;20.010;2023-12-20T00:50:41;13.07;;;10.80;;
16804;SDS011;8520;50.102;20.010;2023-12-20T00:53:11;11.40;;;10.30;;
16804;SDS011;8520;50.102;20.010;2023-12-20T00:55:38;10.47;;;9.47;;
16804;SDS011;8520;50.102;20.010;2023-12-20T00:58:07;10.60;;;9.53;;
16804;SDS011;8520;50.102;20.010;2023-12-20T01:00:35;9.90;;;9.00;;
16804;SDS011;8520;50.102;20.010;2023-12-20T01:03:03;10.43;;;9.43;;
16804;SDS011;8520;50.102;20.010;2023-12-20T01:05:31;9.43;;;8.50;;
16804;SDS011;8520;50.102;20.010;2023-12-20T01:07:59;8.77;;;7.97;;
16804;SDS011;8520;50.102;20.010;2023-12-20T01:10:31;8.33;;;7.53;;
16804;SDS011;8520;50.102;20.010;2023-12-20T01:12:58;7.63;;;7.03;;
16804;SDS011;8520;50.102;20.010;2023-12-20T01:15:27;8.43;;;7.63;;
16804;SDS011;8520;50.102;20.010;2023-12-20T01:17:54;8.30;;;7.60;;
16804;SDS011;8520;50.102;20.010;2023-12-20T01:20:23;8.27;;;7.57;;
16804;SDS011;8520;50.102;20.010;2023-12-20T01:22:52;8.00;;;7.30;;
16804;SDS011;8520;50.102;20.010;2023-12-20T01:25:20;8.20;;;7.50;;
16804;SDS011;8520;50.102;20.010;2023-12-20T01:27:49;8.17;;;7.47;;
16804;SDS011;8520;50.102;20.010;2023-12-20T01:30:17;7.80;;;7.10;;
16804;SDS011;8520;50.102;20.010;2023-12-20T01:32:46;7.97;;;7.27;;
16804;SDS011;8520;50.102;20.010;2023-12-20T01:35:13;7.70;;;7.00;;
16804;SDS011;8520;50.102;20.010;2023-12-20T01:37:42;7.83;;;7.20;;
16804;SDS011;8520;50.102;20.010;2023-12-20T01:40:10;8.07;;;7.37;;
16804;SDS011;8520;50.102;20.010;2023-12-20T01:42:38;8.10;;;7.30;;
16804;SDS011;8520;50.102;20.010;2023-12-20T01:45:08;8.07;;;7.30;;
16804;SDS011;8520;50.102;20.010;2023-12-20T01:47:36;8.30;;;7.67;;
16804;SDS011;8520;50.102;20.010;2023-12-20T01:50:05;8.20;;;7.13;;
16804;SDS011;8520;50.102;20.010;2023-12-20T01:52:35;7.97;;;7.27;;
16804;SDS011;8520;50.102;20.010;2023-12-20T01:55:03;7.73;;;7.13;;
16804;SDS011;8520;50.102;20.010;2023-12-20T01:57:37;7.97;;;7.37;;
16804;SDS011;8520;50.102;20.010;2023-12-20T02:00:08;7.80;;;7.10;;
16804;SDS011;8520;50.102;20.010;2023-12-20T02:02:36;7.87;;;7.27;;
16804;SDS011;8520;50.102;20.010;2023-12-20T02:05:05;7.47;;;6.77;;
16804;SDS011;8520;50.102;20.010;2023-12-20T02:07:33;7.30;;;6.70;;
16804;SDS011;8520;50.102;20.010;2023-12-20T02:10:02;6.43;;;5.90;;
16804;SDS011;8520;50.102;20.010;2023-12-20T02:12:30;6.67;;;6.07;;
16804;SDS011;8520;50.102;20.010;2023-12-20T02:14:58;6.63;;;6.03;;
16804;SDS011;8520;50.102;20.010;2023-12-20T02:17:27;7.10;;;6.20;;
16804;SDS011;8520;50.102;20.010;2023-12-20T02:19:55;6.27;;;5.77;;
16804;SDS011;8520;50.102;20.010;2023-12-20T02:22:25;6.73;;;6.13;;
16804;SDS011;8520;50.102;20.010;2023-12-20T02:24:52;6.43;;;5.77;;
16804;SDS011;8520;50.102;20.010;2023-12-20T02:27:20;6.40;;;5.90;;
16804;SDS011;8520;50.102;20.010;2023-12-20T02:29:49;6.80;;;6.20;;
16804;SDS011;8520;50.102;20.010;2023-12-20T02:32:18;7.00;;;6.50;;
16804;SDS011;8520;50.102;20.010;2023-12-20T02:34:46;6.17;;;5.67;;
16804;SDS011;8520;50.102;20.010;2023-12-20T02:37:15;6.27;;;5.77;;
16804;SDS011;8520;50.102;20.010;2023-12-20T02:39:44;6.03;;;5.53;;
16804;SDS011;8520;50.102;20.010;2023-12-20T02:42:12;5.90;;;5.40;;
16804;SDS011;8520;50.102;20.010;2023-12-20T02:44:40;5.80;;;5.40;;
16804;SDS011;8520;50.102;20.010;2023-12-20T02:47:08;6.40;;;5.40;;
16804;SDS011;8520;50.102;20.010;2023-12-20T02:49:36;5.83;;;5.33;;
16804;SDS011;8520;50.102;20.010;2023-12-20T02:52:04;6.37;;;5.77;;
16804;SDS011;8520;50.102;20.010;2023-12-20T02:54:32;5.83;;;5.43;;
16804;SDS011;8520;50.102;20.010;2023-12-20T02:57:02;5.87;;;5.47;;
16804;SDS011;8520;50.102;20.010;2023-12-20T02:59:30;5.60;;;5.10;;
16804;SDS011;8520;50.102;20.010;2023-12-20T03:01:58;5.60;;;5.20;;
16804;SDS011;8520;50.102;20.010;2023-12-20T03:04:26;5.57;;;5.17;;
16804;SDS011;8520;50.102;20.010;2023-12-20T03:06:54;5.70;;;5.30;;
16804;SDS011;8520;50.102;20.010;2023-12-20T03:09:22;5.50;;;5.10;;
16804;SDS011;8520;50.102;20.010;2023-12-20T03:11:50;5.37;;;4.97;;
16804;SDS011;8520;50.102;20.010;2023-12-20T03:14:19;5.43;;;5.03;;
16804;SDS011;8520;50.102;20.010;2023-12-20T03:16:47;4.87;;;4.47;;
16804;SDS011;8520;50.102;20.010;2023-12-20T03:19:15;5.30;;;4.90;;
16804;SDS011;8520;50.102;20.010;2023-12-20T03:21:43;4.97;;;4.57;;
16804;SDS011;8520;50.102;20.010;2023-12-20T03:24:11;5.77;;;5.33;;
16804;SDS011;8520;50.102;20.010;2023-12-20T03:26:39;5.00;;;4.53;;
16804;SDS011;8520;50.102;20.010;2023-12-20T03:29:07;4.67;;;4.37;;
16804;SDS011;8520;50.102;20.010;2023-12-20T03:31:37;5.07;;;4.77;;
16804;SDS011;8520;50.102;20.010;2023-12-20T03:34:04;4.70;;;4.40;;
16804;SDS011;8520;50.102;20.010;2023-12-20T03:36:32;5.10;;;4.60;;
16804;SDS011;8520;50.102;20.010;2023-12-20T03:39:00;5.27;;;4.87;;
16804;SDS011;8520;50.102;20.010;2023-12-20T03:41:28;5.03;;;4.63;;
16804;SDS011;8520;50.102;20.010;2023-12-20T03:43:56;5.60;;;5.10;;
16804;SDS011;8520;50.102;20.010;2023-12-20T03:46:24;5.33;;;4.93;;
16804;SDS011;8520;50.102;20.010;2023-12-20T03:48:53;5.20;;;4.80;;
16804;SDS011;8520;50.102;20.010;2023-12-20T03:51:21;6.00;;;5.47;;
16804;SDS011;8520;50.102;20.010;2023-12-20T03:53:49;5.70;;;5.20;;
16804;SDS011;8520;50.102;20.010;2023-12-20T03:56:17;5.53;;;5.13;;
16804;SDS011;8520;50.102;20.010;2023-12-20T03:58:45;5.30;;;4.90;;
16804;SDS011;8520;50.102;20.010;2023-12-20T04:01:13;6.10;;;5.60;;
16804;SDS011;8520;50.102;20.010;2023-12-20T04:03:41;5.20;;;4.80;;
16804;SDS011;8520;50.102;20.010;2023-12-20T04:06:10;5.63;;;5.03;;
16804;SDS011;8520;50.102;20.010;2023-12-20T04:08:43;5.33;;;4.90;;
16804;SDS011;8520;50.102;20.010;2023-12-20T04:11:12;5.83;;;5.43;;
16804;SDS011;8520;50.102;20.010;2023-12-20T04:13:39;5.57;;;5.17;;
16804;SDS011;8520;50.102;20.010;2023-12-20T04:16:07;5.57;;;5.10;;
16804;SDS011;8520;50.102;20.010;2023-12-20T04:18:35;5.30;;;4.90;;
16804;SDS011;8520;50.102;20.010;2023-12-20T04:21:03;5.27;;;4.77;;
16804;SDS011;8520;50.102;20.010;2023-12-20T04:23:33;4.87;;;4.47;;
16804;SDS011;8520;50.102;20.010;2023-12-20T04:26:01;5.83;;;5.23;;
16804;SDS011;8520;50.102;20.010;2023-12-20T04:28:29;5.60;;;5.10;;
16804;SDS011;8520;50.102;20.010;2023-12-20T04:30:57;5.27;;;4.77;;
16804;SDS011;8520;50.102;20.010;2023-12-20T04:33:25;5.23;;;4.73;;
16804;SDS011;8520;50.102;20.010;2023-12-20T04:35:53;5.30;;;4.90;;
16804;SDS011;8520;50.102;20.010;2023-12-20T04:38:21;5.73;;;5.23;;
16804;SDS011;8520;50.102;20.010;2023-12-20T04:40:51;5.20;;;4.80;;
16804;SDS011;8520;50.102;20.010;2023-12-20T04:43:18;4.70;;;4.30;;
16804;SDS011;8520;50.102;20.010;2023-12-20T04:45:46;8.37;;;4.90;;
16804;SDS011;8520;50.102;20.010;2023-12-20T04:48:14;5.13;;;4.63;;
16804;SDS011;8520;50.102;20.010;2023-12-20T04:50:42;4.83;;;4.40;;
16804;SDS011;8520;50.102;20.010;2023-12-20T04:53:11;5.37;;;4.47;;
16804;SDS011;8520;50.102;20.010;2023-12-20T04:55:39;5.10;;;4.70;;
16804;SDS011;8520;50.102;20.010;2023-12-20T04:58:08;6.00;;;4.77;;
16804;SDS011;8520;50.102;20.010;2023-12-20T05:00:36;4.83;;;4.40;;
16804;SDS011;8520;50.102;20.010;2023-12-20T05:03:04;4.67;;;4.37;;
16804;SDS011;8520;50.102;20.010;2023-12-20T05:05:33;5.50;;;4.93;;
16804;SDS011;8520;50.102;20.010;2023-12-20T05:08:01;4.30;;;3.83;;
16804;SDS011;8520;50.102;20.010;2023-12-20T05:10:29;4.33;;;4.03;;
16804;SDS011;8520;50.102;20.010;2023-12-20T05:12:56;4.10;;;3.80;;
16804;SDS011;8520;50.102;20.010;2023-12-20T05:15:26;4.23;;;3.93;;
16804;SDS011;8520;50.102;20.010;2023-12-20T05:17:54;4.37;;;4.07;;
16804;SDS011;8520;50.102;20.010;2023-12-20T05:20:22;3.87;;;3.67;;
16804;SDS011;8520;50.102;20.010;2023-12-20T05:22:50;4.10;;;3.80;;
16804;SDS011;8520;50.102;20.010;2023-12-20T05:25:18;3.90;;;3.70;;
16804;SDS011;8520;50.102;20.010;2023-12-20T05:27:47;4.70;;;4.40;;
16804;SDS011;8520;50.102;20.010;2023-12-20T05:30:15;4.80;;;4.50;;
16804;SDS011;8520;50.102;20.010;2023-12-20T05:32:44;5.13;;;4.83;;
16804;SDS011;8520;50.102;20.010;2023-12-20T05:35:13;5.20;;;4.90;;
16804;SDS011;8520;50.102;20.010;2023-12-20T05:37:42;5.70;;;5.30;;
16804;SDS011;8520;50.102;20.010;2023-12-20T05:40:10;5.93;;;5.60;;
16804;SDS011;8520;50.102;20.010;2023-12-20T05:42:38;6.47;;;6.07;;
16804;SDS011;8520;50.102;20.010;2023-12-20T05:45:06;6.90;;;6.50;;
16804;SDS011;8520;50.102;20.010;2023-12-20T05:47:34;7.80;;;7.33;;
16804;SDS011;8520;50.102;20.010;2023-12-20T05:50:04;7.63;;;7.23;;
16804;SDS011;8520;50.102;20.010;2023-12-20T05:52:33;8.97;;;8.47;;
16804;SDS011;8520;50.102;20.010;2023-12-20T05:55:01;10.00;;;9.50;;
16804;SDS011;8520;50.102;20.010;2023-12-20T05:57:29;9.97;;;9.47;;
16804;SDS011;8520;50.102;20.010;2023-12-20T05:59:56;11.30;;;10.80;;
16804;SDS011;8520;50.102;20.010;2023-12-20T06:02:24;12.70;;;12.00;;
16804;SDS011;8520;50.102;20.010;2023-12-20T06:04:52;12.47;;;11.93;;
16804;SDS011;8520;50.102;20.010;2023-12-20T06:07:22;13.80;;;13.10;;
16804;SDS011;8520;50.102;20.010;2023-12-20T06:09:50;14.80;;;14.10;;
16804;SDS011;8520;50.102;20.010;2023-12-20T06:12:18;15.87;;;15.07;;
16804;SDS011;8520;50.102;20.010;2023-12-20T06:14:46;17.00;;;16.20;;
16804;SDS011;8520;50.102;20.010;2023-12-20T06:17:14;18.27;;;17.37;;
16804;SDS011;8520;50.102;20.010;2023-12-20T06:19:41;18.87;;;18.03;;
16804;SDS011;8520;50.102;20.010;2023-12-20T06:22:11;20.87;;;19.87;;
16804;SDS011;8520;50.102;20.010;2023-12-20T06:24:41;21.37;;;20.37;;
16804;SDS011;8520;50.102;20.010;2023-12-20T06:27:09;22.07;;;21.13;;
16804;SDS011;8520;50.102;20.010;2023-12-20T06:29:37;23.83;;;22.73;;
16804;SDS011;8520;50.102;20.010;2023-12-20T06:32:05;25.50;;;24.30;;
16804;SDS011;8520;50.102;20.010;2023-12-20T06:34:33;27.70;;;26.30;;
16804;SDS011;8520;50.102;20.010;2023-12-20T06:37:01;28.07;;;26.70;;
16804;SDS011;8520;50.102;20.010;2023-12-20T06:39:29;29.30;;;27.90;;
16804;SDS011;8520;50.102;20.010;2023-12-20T06:41:58;30.93;;;29.43;;
16804;SDS011;8520;50.102;20.010;2023-12-20T06:44:26;32.07;;;30.57;;
16804;SDS011;8520;50.102;20.010;2023-12-20T06:46:54;33.63;;;32.03;;
16804;SDS011;8520;50.102;20.010;2023-12-20T06:49:22;35.63;;;33.73;;
16804;SDS011;8520;50.102;20.010;2023-12-20T06:51:50;36.03;;;34.13;;
16804;SDS011;8520;50.102;20.010;2023-12-20T06:54:19;38.73;;;36.70;;
16804;SDS011;8520;50.102;20.010;2023-12-20T06:56:47;38.07;;;36.20;;
16804;SDS011;8520;50.102;20.010;2023-12-20T06:59:17;41.13;;;38.93;;
16804;SDS011;8520;50.102;20.010;2023-12-20T07:01:47;41.97;;;39.87;;
16804;SDS011;8520;50.102;20.010;2023-12-20T07:04:15;43.33;;;41.23;;
16804;SDS011;8520;50.102;20.010;2023-12-20T07:06:47;45.17;;;42.87;;
16804;SDS011;8520;50.102;20.010;2023-12-20T07:09:18;45.40;;;43.10;;
16804;SDS011;8520;50.102;20.010;2023-12-20T07:11:46;45.30;;;43.00;;
16804;SDS011;8520;50.102;20.010;2023-12-20T07:14:14;46.37;;;44.03;;
16804;SDS011;8520;50.102;20.010;2023-12-20T07:16:43;45.90;;;43.60;;
16804;SDS011;8520;50.102;20.010;2023-12-20T07:19:11;46.10;;;43.73;;
16804;SDS011;8520;50.102;20.010;2023-12-20T07:21:39;47.10;;;44.60;;
16804;SDS011;8520;50.102;20.010;2023-12-20T07:24:07;46.27;;;43.97;;
16804;SDS011;8520;50.102;20.010;2023-12-20T07:26:35;47.07;;;44.70;;
16804;SDS011;8520;50.102;20.010;2023-12-20T07:29:04;47.67;;;45.23;;
16804;SDS011;8520;50.102;20.010;2023-12-20T07:31:33;48.70;;;46.20;;
16804;SDS011;8520;50.102;20.010;2023-12-20T07:34:02;47.70;;;45.30;;
16804;SDS011;8520;50.102;20.010;2023-12-20T07:36:31;49.13;;;46.63;;
16804;SDS011;8520;50.102;20.010;2023-12-20T07:38:58;48.33;;;45.83;;
16804;SDS011;8520;50.102;20.010;2023-12-20T07:41:26;48.57;;;46.07;;
16804;SDS011;8520;50.102;20.010;2023-12-20T07:43:54;49.80;;;47.10;;
16804;SDS011;8520;50.102;20.010;2023-12-20T07:46:23;49.20;;;46.70;;
16804;SDS011;8520;50.102;20.010;2023-12-20T07:48:51;49.90;;;47.40;;
16804;SDS011;8520;50.102;20.010;2023-12-20T07:51:20;48.70;;;46.30;;
16804;SDS011;8520;50.102;20.010;2023-12-20T07:53:48;49.50;;;47.10;;
16804;SDS011;8520;50.102;20.010;2023-12-20T07:56:16;49.43;;;47.03;;
16804;SDS011;8520;50.102;20.010;2023-12-20T07:58:45;49.27;;;46.83;;
16804;SDS011;8520;50.102;20.010;2023-12-20T08:01:19;48.40;;;46.10;;
16804;SDS011;8520;50.102;20.010;2023-12-20T08:03:48;48.37;;;46.00;;
16804;SDS011;8520;50.102;20.010;2023-12-20T08:06:16;47.53;;;45.13;;
16804;SDS011;8520;50.102;20.010;2023-12-20T08:08:46;46.37;;;44.07;;
16804;SDS011;8520;50.102;20.010;2023-12-20T08:11:26;45.70;;;43.43;;
16804;SDS011;8520;50.102;20.010;2023-12-20T08:13:55;44.77;;;42.57;;
16804;SDS011;8520;50.102;20.010;2023-12-20T08:16:22;44.50;;;42.30;;
16804;SDS011;8520;50.102;20.010;2023-12-20T08:18:50;45.47;;;43.10;;
16804;SDS011;8520;50.102;20.010;2023-12-20T08:21:19;46.97;;;44.57;;
16804;SDS011;8520;50.102;20.010;2023-12-20T08:23:50;47.57;;;45.20;;
16804;SDS011;8520;50.102;20.010;2023-12-20T08:26:19;47.77;;;45.27;;
16804;SDS011;8520;50.102;20.010;2023-12-20T08:28:48;47.73;;;45.30;;
16804;SDS011;8520;50.102;20.010;2023-12-20T08:31:16;48.43;;;46.03;;
16804;SDS011;8520;50.102;20.010;2023-12-20T08:33:45;50.30;;;47.70;;
16804;SDS011;8520;50.102;20.010;2023-12-20T08:36:13;51.47;;;48.67;;
16804;SDS011;8520;50.102;20.010;2023-12-20T08:38:41;51.40;;;48.90;;
16804;SDS011;8520;50.102;20.010;2023-12-20T08:41:10;53.47;;;50.50;;
16804;SDS011;8520;50.102;20.010;2023-12-20T08:43:38;54.20;;;51.50;;
16804;SDS011;8520;50.102;20.010;2023-12-20T08:46:07;54.17;;;51.37;;
16804;SDS011;8520;50.102;20.010;2023-12-20T08:48:36;55.37;;;52.57;;
16804;SDS011;8520;50.102;20.010;2023-12-20T08:51:04;56.73;;;53.73;;
16804;SDS011;8520;50.102;20.010;2023-12-20T08:53:33;58.23;;;55.23;;
16804;SDS011;8520;50.102;20.010;2023-12-20T08:56:01;57.40;;;54.50;;
16804;SDS011;8520;50.102;20.010;2023-12-20T08:58:31;57.10;;;54.00;;
16804;SDS011;8520;50.102;20.010;2023-12-20T09:01:00;57.50;;;54.53;;
16804;SDS011;8520;50.102;20.010;2023-12-20T09:03:28;57.23;;;54.27;;
16804;SDS011;8520;50.102;20.010;2023-12-20T09:05:56;57.80;;;54.80;;
16804;SDS011;8520;50.102;20.010;2023-12-20T09:08:24;58.43;;;55.23;;
16804;SDS011;8520;50.102;20.010;2023-12-20T09:10:52;58.40;;;55.30;;
16804;SDS011;8520;50.102;20.010;2023-12-20T09:13:20;58.30;;;55.23;;
16804;SDS011;8520;50.102;20.010;2023-12-20T09:15:50;59.23;;;56.13;;
16804;SDS011;8520;50.102;20.010;2023-12-20T09:18:18;59.40;;;56.30;;
16804;SDS011;8520;50.102;20.010;2023-12-20T09:20:46;59.37;;;56.27;;
16804;SDS011;8520;50.102;20.010;2023-12-20T09:23:16;61.30;;;57.90;;
16804;SDS011;8520;50.102;20.010;2023-12-20T09:25:44;61.53;;;58.00;;
16804;SDS011;8520;50.102;20.010;2023-12-20T09:28:12;61.13;;;57.93;;
16804;SDS011;8520;50.102;20.010;2023-12-20T09:30:40;61.53;;;58.23;;
16804;SDS011;8520;50.102;20.010;2023-12-20T09:33:10;59.73;;;56.53;;
16804;SDS011;8520;50.102;20.010;2023-12-20T09:35:38;60.50;;;57.30;;
16804;SDS011;8520;50.102;20.010;2023-12-20T09:38:06;60.63;;;57.43;;
16804;SDS011;8520;50.102;20.010;2023-12-20T09:40:34;61.03;;;57.73;;
16804;SDS011;8520;50.102;20.010;2023-12-20T09:43:03;60.30;;;57.00;;
16804;SDS011;8520;50.102;20.010;2023-12-20T09:45:31;60.57;;;57.23;;
16804;SDS011;8520;50.102;20.010;2023-12-20T09:47:59;60.20;;;56.90;;
16804;SDS011;8520;50.102;20.010;2023-12-20T09:50:30;60.30;;;57.07;;
16804;SDS011;8520;50.102;20.010;2023-12-20T09:52:59;60.67;;;57.33;;
16804;SDS011;8520;50.102;20.010;2023-12-20T09:55:28;60.80;;;57.60;;
16804;SDS011;8520;50.102;20.010;2023-12-20T09:57:57;61.20;;;57.90;;
16804;SDS011;8520;50.102;20.010;2023-12-20T10:00:25;61.30;;;57.90;;
16804;SDS011;8520;50.102;20.010;2023-12-20T10:02:56;59.87;;;56.77;;
16804;SDS011;8520;50.102;20.010;2023-12-20T10:05:26;60.87;;;57.37;;
16804;SDS011;8520;50.102;20.010;2023-12-20T10:07:56;58.80;;;55.80;;
16804;SDS011;8520;50.102;20.010;2023-12-20T10:10:24;57.30;;;54.40;;
16804;SDS011;8520;50.102;20.010;2023-12-20T10:13:08;56.77;;;53.87;;
16804;SDS011;8520;50.102;20.010;2023-12-20T10:15:37;56.80;;;53.80;;
16804;SDS011;8520;50.102;20.010;2023-12-20T10:18:05;56.03;;;53.23;;
16804;SDS011;8520;50.102;20.010;2023-12-20T10:20:33;55.53;;;52.73;;
16804;SDS011;8520;50.102;20.010;2023-12-20T10:23:03;53.63;;;50.93;;
16804;SDS011;8520;50.102;20.010;2023-12-20T10:25:31;54.50;;;51.80;;
16804;SDS011;8520;50.102;20.010;2023-12-20T10:28:09;55.00;;;52.30;;
16804;SDS011;8520;50.102;20.010;2023-12-20T10:30:38;56.27;;;53.27;;
16804;SDS011;8520;50.102;20.010;2023-12-20T10:33:06;55.90;;;53.03;;
16804;SDS011;8520;50.102;20.010;2023-12-20T10:35:35;55.30;;;52.53;;
16804;SDS011;8520;50.102;20.010;2023-12-20T10:38:04;54.67;;;51.77;;
16804;SDS011;8520;50.102;20.010;2023-12-20T10:40:34;55.27;;;52.47;;
16804;SDS011;8520;50.102;20.010;2023-12-20T10:43:03;54.77;;;51.97;;
16804;SDS011;8520;50.102;20.010;2023-12-20T10:45:32;54.63;;;51.97;;
16804;SDS011;8520;50.102;20.010;2023-12-20T10:48:00;55.07;;;52.30;;
16804;SDS011;8520;50.102;20.010;2023-12-20T10:50:29;54.60;;;51.83;;
16804;SDS011;8520;50.102;20.010;2023-12-20T10:52:58;55.07;;;52.27;;
16804;SDS011;8520;50.102;20.010;2023-12-20T10:55:28;55.67;;;52.77;;
16804;SDS011;8520;50.102;20.010;2023-12-20T10:57:59;56.30;;;53.40;;
16804;SDS011;8520;50.102;20.010;2023-12-20T11:00:28;57.27;;;54.27;;
16804;SDS011;8520;50.102;20.010;2023-12-20T11:02:58;57.23;;;54.23;;
16804;SDS011;8520;50.102;20.010;2023-12-20T11:05:30;56.30;;;53.37;;
16804;SDS011;8520;50.102;20.010;2023-12-20T11:08:01;57.10;;;54.30;;
16804;SDS011;8520;50.102;20.010;2023-12-20T11:10:34;57.77;;;54.87;;
16804;SDS011;8520;50.102;20.010;2023-12-20T11:13:06;56.30;;;53.50;;
16804;SDS011;8520;50.102;20.010;2023-12-20T11:15:39;58.70;;;55.60;;
16804;SDS011;8520;50.102;20.010;2023-12-20T11:18:07;58.33;;;55.40;;
16804;SDS011;8520;50.102;20.010;2023-12-20T11:20:36;59.90;;;56.80;;
16804;SDS011;8520;50.102;20.010;2023-12-20T11:23:05;60.30;;;57.10;;
16804;SDS011;8520;50.102;20.010;2023-12-20T11:28:22;61.93;;;58.83;;
16804;SDS011;8520;50.102;20.010;2023-12-20T11:30:51;62.43;;;59.13;;
16804;SDS011;8520;50.102;20.010;2023-12-20T11:33:22;61.37;;;58.17;;
16804;SDS011;8520;50.102;20.010;2023-12-20T11:35:55;61.53;;;58.33;;
16804;SDS011;8520;50.102;20.010;2023-12-20T11:38:24;62.17;;;59.00;;
16804;SDS011;8520;50.102;20.010;2023-12-20T11:40:53;60.87;;;57.77;;
16804;SDS011;8520;50.102;20.010;2023-12-20T11:43:31;61.90;;;58.73;;
16804;SDS011;8520;50.102;20.010;2023-12-20T11:46:03;60.83;;;57.83;;
16804;SDS011;8520;50.102;20.010;2023-12-20T11:48:34;60.00;;;56.90;;
16804;SDS011;8520;50.102;20.010;2023-12-20T11:51:02;59.87;;;56.87;;
16804;SDS011;8520;50.102;20.010;2023-12-20T11:53:30;59.90;;;56.87;;
16804;SDS011;8520;50.102;20.010;2023-12-20T11:56:00;58.17;;;55.23;;
16804;SDS011;8520;50.102;20.010;2023-12-20T11:58:29;58.03;;;55.13;;
16804;SDS011;8520;50.102;20.010;2023-12-20T12:00:59;56.40;;;53.70;;
16804;SDS011;8520;50.102;20.010;2023-12-20T12:03:29;57.10;;;54.20;;
16804;SDS011;8520;50.102;20.010;2023-12-20T12:05:57;55.60;;;52.90;;
16804;SDS011;8520;50.102;20.010;2023-12-20T12:08:25;54.47;;;51.80;;
16804;SDS011;8520;50.102;20.010;2023-12-20T12:10:53;53.90;;;51.30;;
16804;SDS011;8520;50.102;20.010;2023-12-20T12:13:21;52.80;;;50.30;;
16804;SDS011;8520;50.102;20.010;2023-12-20T12:15:49;52.63;;;50.03;;
16804;SDS011;8520;50.102;20.010;2023-12-20T12:18:18;53.10;;;50.50;;
16804;SDS011;8520;50.102;20.010;2023-12-20T12:20:47;52.63;;;50.03;;
16804;SDS011;8520;50.102;20.010;2023-12-20T12:23:15;54.07;;;51.47;;
16804;SDS011;8520;50.102;20.010;2023-12-20T12:25:50;53.10;;;50.53;;
16804;SDS011;8520;50.102;20.010;2023-12-20T12:28:18;52.43;;;49.93;;
16804;SDS011;8520;50.102;20.010;2023-12-20T12:30:55;52.17;;;49.57;;
16804;SDS011;8520;50.102;20.010;2023-12-20T12:33:25;52.03;;;49.53;;
16804;SDS011;8520;50.102;20.010;2023-12-20T12:35:54;52.10;;;49.60;;
16804;SDS011;8520;50.102;20.010;2023-12-20T12:38:22;51.20;;;48.80;;
16804;SDS011;8520;50.102;20.010;2023-12-20T12:40:51;51.13;;;48.63;;
16804;SDS011;8520;50.102;20.010;2023-12-20T12:43:20;51.50;;;49.00;;
16804;SDS011;8520;50.102;20.010;2023-12-20T12:45:49;51.83;;;49.33;;
16804;SDS011;8520;50.102;20.010;2023-12-20T12:48:17;52.20;;;49.67;;
16804;SDS011;8520;50.102;20.010;2023-12-20T12:50:47;53.50;;;50.73;;
16804;SDS011;8520;50.102;20.010;2023-12-20T12:53:15;53.67;;;50.87;;
16804;SDS011;8520;50.102;20.010;2023-12-20T12:55:43;53.80;;;51.03;;
16804;SDS011;8520;50.102;20.010;2023-12-20T12:58:11;53.87;;;51.17;;
16804;SDS011;8520;50.102;20.010;2023-12-20T13:00:39;54.10;;;51.30;;
16804;SDS011;8520;50.102;20.010;2023-12-20T13:03:08;54.03;;;51.33;;
16804;SDS011;8520;50.102;20.010;2023-12-20T13:05:36;55.30;;;52.60;;
16804;SDS011;8520;50.102;20.010;2023-12-20T13:08:09;54.83;;;52.23;;
16804;SDS011;8520;50.102;20.010;2023-12-20T13:10:38;56.17;;;53.27;;
16804;SDS011;8520;50.102;20.010;2023-12-20T13:13:06;54.57;;;51.97;;
16804;SDS011;8520;50.102;20.010;2023-12-20T13:15:34;55.33;;;52.53;;
16804;SDS011;8520;50.102;20.010;2023-12-20T13:18:02;53.73;;;51.13;;
16804;SDS011;8520;50.102;20.010;2023-12-20T13:20:31;54.73;;;51.93;;
16804;SDS011;8520;50.102;20.010;2023-12-20T13:22:59;53.80;;;51.20;;
16804;SDS011;8520;50.102;20.010;2023-12-20T13:25:29;54.00;;;51.40;;
16804;SDS011;8520;50.102;20.010;2023-12-20T13:27:58;54.40;;;51.70;;
16804;SDS011;8520;50.102;20.010;2023-12-20T13:30:26;53.67;;;51.07;;
16804;SDS011;8520;50.102;20.010;2023-12-20T13:32:54;53.60;;;50.80;;
16804;SDS011;8520;50.102;20.010;2023-12-20T13:35:22;54.23;;;51.53;;
16804;SDS011;8520;50.102;20.010;2023-12-20T13:37:50;53.07;;;50.47;;
16804;SDS011;8520;50.102;20.010;2023-12-20T13:40:18;53.07;;;50.47;;
16804;SDS011;8520;50.102;20.010;2023-12-20T13:42:48;53.57;;;50.77;;
16804;SDS011;8520;50.102;20.010;2023-12-20T13:45:16;53.00;;;50.40;;
16804;SDS011;8520;50.102;20.010;2023-12-20T13:47:44;51.33;;;48.73;;
16804;SDS011;8520;50.102;20.010;2023-12-20T13:50:12;50.30;;;47.80;;
16804;SDS011;8520;50.102;20.010;2023-12-20T13:52:40;49.33;;;46.93;;
16804;SDS011;8520;50.102;20.010;2023-12-20T13:55:09;48.80;;;46.40;;
16804;SDS011;8520;50.102;20.010;2023-12-20T13:57:37;48.10;;;45.80;;
16804;SDS011;8520;50.102;20.010;2023-12-20T14:00:11;46.83;;;44.63;;
16804;SDS011;8520;50.102;20.010;2023-12-20T14:02:41;46.63;;;44.43;;
16804;SDS011;8520;50.102;20.010;2023-12-20T14:05:09;45.67;;;43.37;;
16804;SDS011;8520;50.102;20.010;2023-12-20T14:07:37;46.50;;;44.17;;
16804;SDS011;8520;50.102;20.010;2023-12-20T14:10:06;46.37;;;44.07;;
16804;SDS011;8520;50.102;20.010;2023-12-20T14:12:35;45.30;;;43.10;;
16804;SDS011;8520;50.102;20.010;2023-12-20T14:15:04;44.67;;;42.47;;
16804;SDS011;8520;50.102;20.010;2023-12-20T14:17:37;44.33;;;42.13;;
16804;SDS011;8520;50.102;20.010;2023-12-20T14:20:05;43.90;;;41.60;;
16804;SDS011;8520;50.102;20.010;2023-12-20T14:22:34;43.50;;;41.30;;
16804;SDS011;8520;50.102;20.010;2023-12-20T14:25:03;42.57;;;40.37;;
16804;SDS011;8520;50.102;20.010;2023-12-20T14:27:31;42.00;;;40.00;;
16804;SDS011;8520;50.102;20.010;2023-12-20T14:29:59;42.37;;;40.20;;
16804;SDS011;8520;50.102;20.010;2023-12-20T14:32:27;42.00;;;39.90;;
16804;SDS011;8520;50.102;20.010;2023-12-20T14:34:56;41.70;;;39.67;;
16804;SDS011;8520;50.102;20.010;2023-12-20T14:37:24;42.20;;;40.10;;
16804;SDS011;8520;50.102;20.010;2023-12-20T14:39:53;42.10;;;39.87;;
16804;SDS011;8520;50.102;20.010;2023-12-20T14:42:21;42.40;;;40.23;;